Time;durP1;ratioP1;P1;durP2;ratioP2;P2;SDS_P1;SDS_P2;PMS_P1;PMS_P2;Temp;Humidity;BMP_temperature;BMP_pressure;BME280_temperature;BME280_humidity;BME280_pressure;Samples;Min_cycle;Max_cycle;Signal;HPM_P1;HPM_P2
2023/08/15 01:23:43;;;;;;;8.82;4.82;;;23.00;99.90;;;;;;5089355;28;20048;-73
2023/08/15 01:26:47;;;;;;;6.65;5.10;;;23.00;99.90;;;;;;5090543;28;20533;-72
2023/08/15 01:29:52;;;;;;;6.38;4.32;;;22.90;99.90;;;;;;5089924;28;20406;-72
2023/08/15 01:33:15;;;;;;;8.50;4.05;;;22.90;99.90;;;;;;5081117;28;20502;-72
2023/08/15 01:36:25;;;;;;;6.32;3.80;;;22.80;99.90;;;;;;5082419;28;20051;-73
2023/08/15 01:39:31;;;;;;;8.70;4.20;;;22.90;99.90;;;;;;5094295;28;20047;-72
2023/08/15 01:42:39;;;;;;;6.05;4.00;;;22.80;99.90;;;;;;5093594;28;20043;-72
2023/08/15 01:45:43;;;;;;;10.75;4.35;;;22.80;99.90;;;;;;5094392;28;20043;-72
2023/08/15 01:48:47;;;;;;;4.93;3.85;;;22.80;99.90;;;;;;5094309;28;20506;-72
2023/08/15 01:51:54;;;;;;;4.85;3.70;;;22.80;99.90;;;;;;5093836;28;20039;-72
2023/08/15 01:54:58;;;;;;;6.32;3.88;;;22.70;99.90;;;;;;5094156;28;20482;-72
2023/08/15 01:58:03;;;;;;;5.90;4.68;;;22.60;99.90;;;;;;5081404;28;20051;-72
2023/08/15 02:01:07;;;;;;;7.65;4.65;;;22.50;99.90;;;;;;5081715;28;20046;-72
2023/08/15 02:04:11;;;;;;;7.32;4.50;;;22.40;99.90;;;;;;5093995;28;20407;-72
2023/08/15 02:07:15;;;;;;;9.93;4.75;;;22.40;99.90;;;;;;5081496;28;20055;-72
2023/08/15 02:10:19;;;;;;;9.07;4.75;;;22.30;99.90;;;;;;5093930;28;20047;-72
2023/08/15 02:13:30;;;;;;;7.88;4.13;;;22.20;99.90;;;;;;5081299;28;20410;-72
2023/08/15 02:16:34;;;;;;;8.32;4.55;;;22.20;99.90;;;;;;5093589;28;20055;-72
2023/08/15 02:26:23;;;;;;;7.45;4.45;;;22.10;99.90;;;;;;5094122;28;20510;-72
2023/08/15 02:29:27;;;;;;;4.45;4.05;;;22.10;99.90;;;;;;5093313;28;20051;-72
2023/08/15 02:32:50;;;;;;;6.45;4.85;;;22.10;99.90;;;;;;5081155;28;20417;-72
2023/08/15 02:35:54;;;;;;;6.65;5.22;;;22.10;99.90;;;;;;5093798;28;20394;-72
2023/08/15 02:39:01;;;;;;;7.45;5.07;;;22.10;99.90;;;;;;5081146;28;20051;-72
2023/08/15 02:42:24;;;;;;;10.02;5.50;;;22.00;99.90;;;;;;5093274;28;20353;-72
2023/08/15 02:45:28;;;;;;;7.88;5.70;;;21.90;99.90;;;;;;5094793;28;20406;-72
2023/08/15 02:48:32;;;;;;;10.13;4.45;;;21.80;99.90;;;;;;5080460;28;20406;-71
2023/08/15 02:51:55;;;;;;;8.38;4.28;;;21.80;99.90;;;;;;5092963;28;20039;-72
2023/08/15 02:54:59;;;;;;;7.57;5.20;;;21.70;99.90;;;;;;5093223;28;20383;-71
2023/08/15 02:58:22;;;;;;;9.30;5.60;;;21.70;99.90;;;;;;5083203;28;20114;-71
2023/08/15 03:01:26;;;;;;;7.80;5.28;;;21.50;99.90;;;;;;5092720;28;20055;-71
2023/08/15 03:08:11;;;;;;;11.95;6.00;;;21.50;99.90;;;;;;5092864;28;20039;-71
2023/08/15 03:11:15;;;;;;;11.30;6.47;;;21.50;99.90;;;;;;5080237;28;20047;-73
2023/08/15 03:14:57;;;;;;;8.73;5.65;;;21.60;99.90;;;;;;5092811;28;20050;-73
2023/08/15 03:18:20;;;;;;;9.57;6.38;;;21.50;99.90;;;;;;5080251;28;20051;-72
2023/08/15 03:21:24;;;;;;;6.93;5.65;;;21.50;99.90;;;;;;5092457;28;20387;-73
2023/08/15 03:24:32;;;;;;;12.38;6.05;;;21.60;99.90;;;;;;5092757;28;20062;-72
2023/08/15 03:27:36;;;;;;;7.45;5.82;;;21.60;99.90;;;;;;5080144;28;20123;-72
2023/08/15 03:30:59;;;;;;;9.32;5.95;;;21.60;99.90;;;;;;5079908;28;20043;-72
2023/08/15 03:34:22;;;;;;;7.63;6.40;;;21.60;99.90;;;;;;5092278;28;20044;-72
2023/08/15 03:37:27;;;;;;;9.65;5.80;;;21.40;99.90;;;;;;5079860;28;20047;-72
2023/08/15 03:40:31;;;;;;;9.32;6.00;;;21.40;99.90;;;;;;5091784;28;20477;-73
2023/08/15 03:47:17;;;;;;;9.27;5.70;;;21.20;99.90;;;;;;5079597;28;20035;-72
2023/08/15 03:50:22;;;;;;;8.82;6.03;;;21.20;99.90;;;;;;5091806;28;20039;-72
2023/08/15 03:54:04;;;;;;;11.13;6.18;;;21.20;99.90;;;;;;5091570;28;20110;-72
2023/08/15 03:57:08;;;;;;;9.90;6.15;;;21.10;99.90;;;;;;5092476;28;20059;-73
2023/08/15 04:00:13;;;;;;;9.15;6.30;;;21.00;99.90;;;;;;5091978;28;20048;-73
2023/08/15 04:03:20;;;;;;;12.93;6.85;;;20.90;99.90;;;;;;5078803;28;20042;-73
2023/08/15 04:06:42;;;;;;;9.00;6.55;;;20.90;99.90;;;;;;5079269;28;20051;-72
2023/08/15 04:17:29;;;;;;;11.10;6.35;;;20.80;99.90;;;;;;5091372;28;20035;-72
2023/08/15 04:20:41;;;;;;;9.88;6.35;;;20.70;99.90;;;;;;5078794;28;20046;-72
2023/08/15 04:23:46;;;;;;;8.65;6.07;;;20.70;99.90;;;;;;5091351;28;20513;-72
2023/08/15 04:26:49;;;;;;;8.38;7.03;;;20.70;99.90;;;;;;5091341;28;20340;-72
2023/08/15 04:29:55;;;;;;;10.57;7.65;;;20.60;99.90;;;;;;5066970;28;20047;-71
2023/08/15 04:33:00;;;;;;;12.25;7.88;;;20.60;99.90;;;;;;5078405;28;20055;-72
2023/08/15 04:36:04;;;;;;;12.10;6.72;;;20.60;99.90;;;;;;5091288;28;20047;-72
2023/08/15 04:39:10;;;;;;;17.50;9.15;;;20.60;99.90;;;;;;5078861;28;20055;-72
2023/08/15 04:42:14;;;;;;;11.93;7.38;;;20.60;99.90;;;;;;5089737;28;20743;-72
2023/08/15 04:45:18;;;;;;;11.45;7.45;;;20.60;99.90;;;;;;5078327;28;20039;-71
2023/08/15 04:48:23;;;;;;;9.40;7.72;;;20.60;99.90;;;;;;5078369;28;20445;-72
2023/08/15 04:51:27;;;;;;;13.52;7.55;;;20.60;99.90;;;;;;5090601;28;20055;-72
2023/08/15 04:54:50;;;;;;;13.45;8.00;;;20.60;99.90;;;;;;5091074;28;20047;-71
2023/08/15 04:57:54;;;;;;;15.05;7.47;;;20.70;99.90;;;;;;5078517;28;20390;-72
2023/08/15 05:01:16;;;;;;;10.15;7.10;;;20.70;99.90;;;;;;5090974;28;20050;-72
2023/08/15 05:04:20;;;;;;;9.63;7.38;;;20.80;99.90;;;;;;5078479;28;20059;-72
2023/08/15 05:07:26;;;;;;;22.50;8.30;;;20.90;99.90;;;;;;5068421;28;20055;-72
2023/08/15 05:10:30;;;;;;;17.38;8.07;;;21.00;99.90;;;;;;5057826;28;20043;-72
2023/08/15 05:13:34;;;;;;;11.57;6.90;;;21.10;99.90;;;;;;5048118;28;20039;-73
2023/08/15 05:16:39;;;;;;;16.90;6.18;;;21.30;99.90;;;;;;5064547;28;20422;-72
2023/08/15 05:19:44;;;;;;;10.65;6.00;;;23.50;99.90;;;;;;5058138;28;20047;-73
2023/08/15 05:26:48;;;;;;;7.05;4.95;;;28.80;99.90;;;;;;5070047;28;20055;-73
2023/08/15 05:29:51;;;;;;;6.32;4.78;;;30.30;99.90;;;;;;5070616;28;20047;-73
2023/08/15 05:32:55;;;;;;;5.78;5.00;;;31.30;99.90;;;;;;5070498;28;20055;-72
2023/08/15 05:43:03;;;;;;;10.77;5.03;;;32.40;99.90;;;;;;5069764;28;20048;-72
2023/08/15 05:46:26;;;;;;;6.93;4.70;;;30.40;99.90;;;;;;5069946;28;20052;-72
2023/08/15 05:49:48;;;;;;;8.23;4.75;;;30.10;99.90;;;;;;5070270;28;20051;-73
2023/08/15 05:53:11;;;;;;;7.70;4.60;;;31.00;99.90;;;;;;5070051;28;20044;-73
2023/08/15 05:56:15;;;;;;;8.30;4.90;;;32.00;99.90;;;;;;5070306;28;20036;-72
2023/08/15 06:02:44;;;;;;;7.00;4.07;;;32.30;99.70;;;;;;5069681;28;20040;-73
2023/08/15 06:06:07;;;;;;;7.45;3.95;;;32.60;99.80;;;;;;5069996;28;20051;-73
2023/08/15 06:09:10;;;;;;;7.55;4.43;;;33.30;98.50;;;;;;5069989;28;20067;-72
2023/08/15 06:12:14;;;;;;;8.23;4.28;;;33.10;98.00;;;;;;5069705;28;20047;-71
2023/08/15 06:19:18;;;;;;;;;;;31.50;99.30;;;;;;5073628;28;20521;-73
2023/08/15 06:22:22;;;;;;;8.10;4.55;;;30.40;99.90;;;;;;5072830;28;19912;-72
2023/08/15 06:29:45;;;;;;;;;;;29.00;99.90;;;;;;5073598;28;20047;-72
2023/08/15 06:33:07;;;;;;;5.32;3.47;;;29.70;99.90;;;;;;5072882;28;20294;-72
2023/08/15 06:40:31;;;;;;;6.25;3.47;;;30.60;99.60;;;;;;5073470;28;20387;-73
2023/08/15 06:43:35;;;;;;;5.47;3.72;;;31.30;97.30;;;;;;5073009;28;20055;-72
2023/08/15 06:46:39;;;;;;;6.53;3.22;;;32.00;95.60;;;;;;5073162;28;20497;-72
2023/08/15 06:49:42;;;;;;;6.22;3.03;;;31.10;95.20;;;;;;5072887;28;20403;-73
2023/08/15 06:52:46;;;;;;;5.40;2.80;;;31.80;94.60;;;;;;5072524;28;20063;-72
2023/08/15 06:56:10;;;;;;;7.78;3.45;;;32.70;94.00;;;;;;5073172;28;20043;-73
2023/08/15 06:59:35;;;;;;;4.75;3.28;;;32.30;93.80;;;;;;5073326;28;20060;-72
2023/08/15 07:02:40;;;;;;;6.40;3.17;;;32.10;93.30;;;;;;5074516;28;20051;-72
2023/08/15 07:05:45;;;;;;;4.53;3.17;;;32.80;93.20;;;;;;5073164;28;20052;-72
2023/08/15 07:08:49;;;;;;;5.07;3.22;;;31.80;94.70;;;;;;5072682;28;20050;-73
2023/08/15 07:11:54;;;;;;;4.32;2.72;;;33.10;93.70;;;;;;5072308;28;20035;-72
2023/08/15 07:15:16;;;;;;;3.85;2.85;;;33.90;93.60;;;;;;5072463;28;20522;-72
2023/08/15 07:18:39;;;;;;;5.55;2.97;;;35.20;92.30;;;;;;5072739;28;20047;-72
2023/08/15 07:21:43;;;;;;;2.97;2.60;;;35.90;91.70;;;;;;5059894;28;20055;-72
2023/08/15 07:24:47;;;;;;;6.28;2.58;;;37.00;90.40;;;;;;5072268;28;20502;-73
2023/08/15 07:27:51;;;;;;;4.82;2.60;;;38.10;88.80;;;;;;5072513;28;20052;-72
2023/08/15 07:30:55;;;;;;;4.22;2.70;;;38.80;85.50;;;;;;5071707;28;20058;-72
2023/08/15 07:34:36;;;;;;;4.28;2.70;;;38.90;84.50;;;;;;5072017;28;20564;-73
2023/08/15 07:37:40;;;;;;;6.95;2.80;;;38.80;83.60;;;;;;5072869;28;20039;-73
2023/08/15 07:44:07;;;;;;;4.95;2.50;;;38.30;81.10;;;;;;5072137;28;20383;-72
2023/08/15 07:47:34;;;;;;;7.93;3.42;;;36.60;84.00;;;;;;5071858;28;20048;-73
2023/08/15 07:50:38;;;;;;;5.80;2.80;;;35.30;87.60;;;;;;5071971;28;20348;-73
2023/08/15 07:53:42;;;;;;;4.13;2.30;;;34.40;87.70;;;;;;5071649;28;20043;-73
2023/08/15 07:56:46;;;;;;;6.30;3.08;;;35.00;87.70;;;;;;5072117;28;20043;-72
2023/08/15 07:59:49;;;;;;;4.75;2.90;;;35.90;86.70;;;;;;5071708;28;20426;-73
2023/08/15 08:02:53;;;;;;;3.00;2.53;;;37.40;84.00;;;;;;5071484;28;20056;-72
2023/08/15 08:06:16;;;;;;;5.75;2.60;;;37.20;84.00;;;;;;5071472;28;20051;-72
2023/08/15 08:09:38;;;;;;;6.57;2.60;;;38.70;82.60;;;;;;5070861;28;20047;-73
2023/08/15 08:12:43;;;;;;;7.97;2.72;;;38.70;81.50;;;;;;5058840;28;20040;-72
2023/08/15 08:15:48;;;;;;;4.35;2.40;;;38.40;81.60;;;;;;5071382;28;20226;-73
2023/08/15 08:18:52;;;;;;;9.57;2.85;;;39.10;80.80;;;;;;5071340;28;20054;-72
2023/08/15 08:21:56;;;;;;;3.72;2.20;;;40.80;79.00;;;;;;5070361;28;20047;-72
2023/08/15 08:25:21;;;;;;;4.75;2.20;;;41.40;78.00;;;;;;5071109;28;20050;-73
2023/08/15 08:28:44;;;;;;;3.90;2.25;;;39.90;78.70;;;;;;5071018;28;20630;-73
2023/08/15 08:31:47;;;;;;;5.20;2.33;;;38.70;78.50;;;;;;5071261;28;20051;-72
2023/08/15 08:34:51;;;;;;;4.63;2.42;;;38.80;78.00;;;;;;5071511;28;20047;-73
2023/08/15 08:41:38;;;;;;;4.53;2.22;;;38.20;77.20;;;;;;5069532;28;20505;-72
2023/08/15 08:48:24;;;;;;;3.50;2.38;;;40.00;73.90;;;;;;5070899;28;20040;-73
2023/08/15 08:55:11;;;;;;;5.07;1.98;;;40.30;73.80;;;;;;5071111;28;20063;-72
2023/08/15 08:58:35;;;;;;;2.88;2.00;;;41.10;71.10;;;;;;5070773;28;20383;-73
2023/08/15 09:01:40;;;;;;;4.45;1.92;;;42.80;71.50;;;;;;5070606;28;20517;-74
2023/08/15 09:04:44;;;;;;;6.15;1.90;;;40.70;69.20;;;;;;5069838;28;20067;-73
2023/08/15 09:07:49;;;;;;;4.20;2.22;;;39.90;72.00;;;;;;5070970;28;20048;-72
2023/08/15 09:10:53;;;;;;;9.30;2.50;;;41.30;71.30;;;;;;5070532;28;20814;-72
2023/08/15 09:13:57;;;;;;;3.28;1.80;;;41.30;69.40;;;;;;5070479;28;20494;-73
2023/08/15 09:17:01;;;;;;;3.30;1.65;;;42.80;68.80;;;;;;5070532;28;20411;-72
2023/08/15 09:20:16;;;;;;;7.05;2.28;;;42.50;66.70;;;;;;5070501;28;20047;-73
2023/08/15 09:23:20;;;;;;;4.47;2.13;;;40.00;66.70;;;;;;5069836;28;20055;-72
2023/08/15 09:26:25;;;;;;;4.47;1.60;;;40.70;67.90;;;;;;5070367;28;20421;-73
2023/08/15 09:29:47;;;;;;;2.15;1.40;;;43.90;65.30;;;;;;5070204;28;20043;-73
2023/08/15 09:32:52;;;;;;;4.93;1.90;;;44.60;64.90;;;;;;5070019;28;20049;-73
2023/08/15 09:35:56;;;;;;;2.83;1.80;;;42.70;66.60;;;;;;5070442;28;20059;-72
2023/08/15 09:39:00;;;;;;;8.25;2.60;;;44.40;66.30;;;;;;5070382;28;20052;-72
2023/08/15 09:42:04;;;;;;;3.50;1.70;;;43.90;64.80;;;;;;5057556;28;20419;-73
2023/08/15 09:45:09;;;;;;;3.42;1.70;;;39.70;63.50;;;;;;5070556;28;20063;-73
2023/08/15 09:48:13;;;;;;;5.60;2.22;;;43.20;64.50;;;;;;5070200;28;20395;-73
2023/08/15 09:51:18;;;;;;;3.75;2.28;;;45.80;63.00;;;;;;5070094;28;20052;-73
2023/08/15 09:54:24;;;;;;;4.45;2.10;;;46.90;60.80;;;;;;5073789;28;20044;-73
2023/08/15 09:57:47;;;;;;;5.55;2.00;;;42.90;61.60;;;;;;5073984;28;20395;-72
2023/08/15 10:01:14;;;;;;;5.05;1.85;;;43.90;62.20;;;;;;5073978;28;20391;-73
2023/08/15 10:07:44;;;;;;;4.95;1.58;;;45.30;62.90;;;;;;5073616;28;20399;-72
2023/08/15 10:10:52;;;;;;;3.58;1.45;;;44.10;60.60;;;;;;5073534;28;20043;-72
2023/08/15 10:14:17;;;;;;;3.10;1.77;;;47.20;59.90;;;;;;5074031;28;20040;-73
2023/08/15 10:17:25;;;;;;;3.88;1.67;;;44.50;59.40;;;;;;5073563;28;20043;-73
2023/08/15 10:20:36;;;;;;;3.15;1.52;;;46.40;59.20;;;;;;5073684;28;20051;-73
2023/08/15 10:23:40;;;;;;;5.03;1.70;;;46.60;59.00;;;;;;5073374;28;20052;-73
2023/08/15 10:27:22;;;;;;;6.32;1.55;;;48.70;58.70;;;;;;5073328;28;20426;-72
2023/08/15 10:30:45;;;;;;;3.70;1.58;;;49.10;57.40;;;;;;5073051;28;20048;-73
2023/08/15 10:34:31;;;;;;;4.60;1.70;;;49.40;56.20;;;;;;5073442;28;20111;-72
2023/08/15 10:38:12;;;;;;;2.35;1.30;;;48.60;55.10;;;;;;5073572;28;20514;-72
2023/08/15 10:41:17;;;;;;;2.88;1.73;;;48.80;56.30;;;;;;5073132;28;20051;-73
2023/08/15 10:44:21;;;;;;;3.15;1.55;;;49.60;55.20;;;;;;5072971;28;20415;-73
2023/08/15 10:47:45;;;;;;;3.85;1.75;;;50.20;55.90;;;;;;5072811;28;20040;-71
2023/08/15 10:50:50;;;;;;;2.85;1.70;;;51.40;54.90;;;;;;5072765;28;20514;-71
2023/08/15 13:25:07;;;;;;;8.20;3.00;;;41.50;59.40;;;;;;5070233;28;20059;-71
2023/08/15 13:28:11;;;;;;;4.25;2.40;;;41.70;58.30;;;;;;5071192;28;20048;-71
2023/08/15 13:31:52;;;;;;;4.05;2.40;;;41.90;59.90;;;;;;5074366;28;20517;-72
2023/08/15 13:34:56;;;;;;;3.92;2.55;;;42.30;59.90;;;;;;5074136;28;20392;-72
2023/08/15 13:38:01;;;;;;;2.72;2.47;;;42.30;59.40;;;;;;5074631;28;20040;-71
2023/08/15 13:41:23;;;;;;;5.85;2.35;;;42.30;59.40;;;;;;5074765;28;20043;-72
2023/08/15 13:44:46;;;;;;;2.88;2.35;;;41.40;60.10;;;;;;5074432;28;20494;-71
2023/08/15 13:47:50;;;;;;;3.65;2.63;;;41.40;59.50;;;;;;5074387;28;20051;-71
2023/08/15 13:51:18;;;;;;;4.07;2.50;;;41.00;59.40;;;;;;5064293;28;20043;-72
2023/08/15 13:54:22;;;;;;;5.13;3.17;;;40.40;60.40;;;;;;5074018;28;20051;-73
2023/08/15 13:57:27;;;;;;;3.75;3.00;;;39.90;61.40;;;;;;5061800;28;20406;-72
2023/08/15 14:00:32;;;;;;;6.18;2.20;;;40.20;61.30;;;;;;5073993;28;20322;-71
2023/08/15 14:03:36;;;;;;;4.32;2.40;;;40.80;61.20;;;;;;5073437;28;20043;-72
2023/08/15 14:07:18;;;;;;;3.95;2.60;;;39.60;60.60;;;;;;5074160;28;20055;-70
2023/08/15 14:10:22;;;;;;;2.75;2.30;;;39.10;60.70;;;;;;5061120;28;20414;-73
2023/08/15 14:20:49;;;;;;;3.42;2.70;;;38.90;62.30;;;;;;5073290;28;20047;-71
2023/08/15 14:23:52;;;;;;;5.28;2.80;;;39.30;62.30;;;;;;5073782;28;20043;-71
2023/08/15 14:27:16;;;;;;;2.63;2.20;;;39.20;61.90;;;;;;5073470;28;20404;-71
2023/08/15 14:30:20;;;;;;;5.35;2.50;;;38.50;63.00;;;;;;5060956;28;20047;-72
2023/08/15 14:33:26;;;;;;;2.65;2.17;;;37.70;63.40;;;;;;5073259;28;20047;-72
2023/08/15 14:36:30;;;;;;;3.92;2.67;;;37.50;62.90;;;;;;5060919;28;20039;-71
2023/08/15 14:39:34;;;;;;;5.40;2.75;;;37.60;64.20;;;;;;5073014;28;20051;-71
2023/08/15 14:42:57;;;;;;;5.22;2.50;;;38.00;63.20;;;;;;5072744;28;20598;-72
2023/08/15 14:46:00;;;;;;;5.55;2.90;;;37.10;63.00;;;;;;5073381;28;20040;-72
2023/08/15 14:49:05;;;;;;;5.30;2.80;;;37.70;64.80;;;;;;5073074;28;20602;-72
2023/08/15 14:52:09;;;;;;;9.73;2.50;;;38.10;64.20;;;;;;5072766;28;20048;-72
2023/08/15 14:58:35;;;;;;;5.00;2.85;;;38.30;62.80;;;;;;5072861;28;20044;-73
2023/08/15 15:02:01;;;;;;;5.43;2.70;;;38.30;63.00;;;;;;5072472;28;20043;-71
2023/08/15 15:05:42;;;;;;;3.40;2.42;;;38.00;63.60;;;;;;5073157;28;20047;-73
2023/08/15 15:08:46;;;;;;;8.07;3.17;;;38.10;64.10;;;;;;5073295;28;20052;-73
2023/08/15 15:11:50;;;;;;;6.35;3.05;;;37.90;65.00;;;;;;5072703;28;20042;-73
2023/08/15 15:15:12;;;;;;;3.72;2.53;;;37.70;64.40;;;;;;5073052;28;20040;-72
2023/08/15 15:21:39;;;;;;;5.35;3.28;;;37.40;66.10;;;;;;5071857;28;20047;-73
2023/08/15 15:24:43;;;;;;;7.47;3.17;;;37.40;66.20;;;;;;5072753;28;20059;-72
2023/08/15 15:28:24;;;;;;;7.90;3.55;;;37.10;66.70;;;;;;5072295;28;20047;-72
2023/08/15 15:31:28;;;;;;;4.82;3.38;;;37.00;67.50;;;;;;5071786;28;20040;-72
2023/08/15 15:34:32;;;;;;;4.50;2.83;;;37.20;68.70;;;;;;5072369;28;20040;-73
2023/08/15 15:37:55;;;;;;;3.70;3.05;;;37.00;68.10;;;;;;5072509;28;20039;-72
2023/08/15 15:40:59;;;;;;;7.63;3.50;;;37.10;68.00;;;;;;5072032;28;20044;-73
2023/08/15 15:44:22;;;;;;;4.35;3.42;;;37.00;68.00;;;;;;5071606;28;20498;-72
2023/08/15 15:47:45;;;;;;;3.95;3.40;;;36.70;68.00;;;;;;5071934;28;20498;-72
2023/08/15 15:50:49;;;;;;;6.85;3.20;;;36.60;68.30;;;;;;5058509;28;20047;-73
2023/08/15 15:53:53;;;;;;;11.50;3.70;;;36.60;68.60;;;;;;5070990;28;20119;-72
2023/08/15 15:56:57;;;;;;;5.60;3.60;;;36.50;69.40;;;;;;5071694;28;20111;-71
2023/08/15 16:00:02;;;;;;;7.80;3.72;;;36.30;70.20;;;;;;5071868;28;20051;-71
2023/08/15 16:03:25;;;;;;;5.30;3.35;;;36.20;71.10;;;;;;5071324;28;20055;-72
2023/08/15 16:07:06;;;;;;;7.30;3.53;;;36.00;71.50;;;;;;5071661;28;20116;-72
2023/08/15 16:10:29;;;;;;;5.15;3.67;;;35.90;71.00;;;;;;5058894;28;20498;-72
2023/08/15 16:13:52;;;;;;;4.50;3.50;;;35.90;71.10;;;;;;5071152;28;20039;-72
2023/08/15 16:17:14;;;;;;;;;;;35.80;72.30;;;;;;5071552;28;20039;-72
2023/08/15 16:20:18;;;;;;;6.72;4.22;;;35.60;74.70;;;;;;5071413;28;19911;-70
2023/08/15 16:23:22;;;;;;;6.15;4.05;;;35.30;76.30;;;;;;5071087;28;20403;-70
2023/08/15 16:26:45;;;;;;;9.90;4.70;;;35.00;77.50;;;;;;5069728;28;20051;-70
2023/08/15 16:30:08;;;;;;;;;;;34.70;78.90;;;;;;5071807;28;20059;-71
2023/08/15 16:33:31;;;;;;;11.27;4.47;;;34.60;79.90;;;;;;5070772;28;19915;-70
2023/08/15 16:36:54;;;;;;;9.27;4.82;;;34.60;79.80;;;;;;5071182;28;20032;-69
2023/08/15 16:40:16;;;;;;;;;;;34.60;80.40;;;;;;5071928;28;20047;-71
2023/08/15 16:43:20;;;;;;;6.30;4.07;;;34.40;81.30;;;;;;5073078;28;19915;-71
2023/08/15 16:47:03;;;;;;;7.15;4.05;;;34.40;81.10;;;;;;5070033;28;20058;-70
2023/08/15 16:50:08;;;;;;;8.18;4.78;;;34.40;80.70;;;;;;5070674;28;20040;-71
2023/08/15 16:53:12;;;;;;;9.45;3.67;;;34.10;80.50;;;;;;5070347;28;20036;-71
2023/08/15 16:56:16;;;;;;;7.70;4.43;;;34.00;81.60;;;;;;5070888;28;20052;-70
2023/08/15 16:59:20;;;;;;;9.13;3.75;;;34.20;81.40;;;;;;5070755;28;20043;-70
2023/08/15 17:02:24;;;;;;;10.23;3.63;;;33.90;81.40;;;;;;5070453;28;20040;-69
2023/08/15 17:05:28;;;;;;;8.50;4.15;;;33.60;80.50;;;;;;5070788;28;20044;-71
2023/08/15 17:08:32;;;;;;;7.07;3.72;;;33.50;81.10;;;;;;5070658;28;20036;-72
2023/08/15 17:11:54;;;;;;;6.05;3.92;;;33.40;81.40;;;;;;5070246;28;20054;-71
2023/08/15 17:14:58;;;;;;;7.20;4.32;;;33.30;81.30;;;;;;5070506;28;20035;-71
2023/08/15 17:18:21;;;;;;;7.00;3.88;;;33.10;81.40;;;;;;5070545;28;20039;-71
2023/08/15 17:21:25;;;;;;;7.30;4.05;;;32.80;81.10;;;;;;5070172;28;20052;-71
2023/08/15 17:25:08;;;;;;;8.30;4.13;;;32.60;81.90;;;;;;5070114;28;20067;-72
2023/08/15 17:28:30;;;;;;;5.03;4.03;;;32.40;82.30;;;;;;5070826;28;20052;-72
2023/08/15 17:31:34;;;;;;;7.30;3.65;;;32.20;82.30;;;;;;5069991;28;20057;-72
2023/08/15 17:34:38;;;;;;;8.95;3.83;;;32.10;83.20;;;;;;5070477;28;20514;-72
2023/08/15 17:41:23;;;;;;;6.57;3.65;;;31.80;83.90;;;;;;5069999;28;20048;-75
2023/08/15 17:44:27;;;;;;;10.18;4.50;;;31.70;83.60;;;;;;5070417;28;20460;-73
2023/08/15 17:47:32;;;;;;;8.75;3.70;;;31.60;84.00;;;;;;5070597;28;20055;-73
2023/08/15 17:50:36;;;;;;;5.22;3.60;;;31.60;84.70;;;;;;5070320;28;20119;-73
2023/08/15 17:53:40;;;;;;;11.10;3.88;;;31.50;85.00;;;;;;5070174;28;20065;-72
2023/08/15 17:56:44;;;;;;;5.28;3.22;;;31.40;85.20;;;;;;5070748;28;20498;-73
2023/08/15 17:59:48;;;;;;;6.40;3.85;;;31.40;86.10;;;;;;5070371;28;20413;-73
2023/08/15 18:03:11;;;;;;;7.03;3.83;;;31.30;86.20;;;;;;5069537;28;20506;-73
2023/08/15 18:06:15;;;;;;;6.95;4.13;;;31.10;86.70;;;;;;5070257;28;20383;-72
2023/08/15 18:09:19;;;;;;;6.13;3.97;;;31.10;87.30;;;;;;5070076;28;20040;-72
2023/08/15 18:12:23;;;;;;;5.75;4.03;;;30.80;87.60;;;;;;5069991;28;20055;-73
2023/08/15 18:15:27;;;;;;;8.02;3.92;;;30.70;88.30;;;;;;5073540;28;20069;-72
2023/08/15 18:18:50;;;;;;;6.07;4.15;;;30.50;88.20;;;;;;5073464;28;20051;-73
2023/08/15 18:21:54;;;;;;;6.72;3.88;;;30.20;88.30;;;;;;5061077;28;20051;-73
2023/08/15 18:24:58;;;;;;;5.05;3.55;;;30.10;88.50;;;;;;5073381;28;20063;-73
2023/08/15 18:28:03;;;;;;;10.90;4.30;;;30.00;88.90;;;;;;5061080;28;20358;-73
2023/08/15 18:31:07;;;;;;;9.00;3.90;;;29.90;89.10;;;;;;5073276;28;20051;-73
2023/08/15 18:34:11;;;;;;;6.15;3.90;;;29.80;89.20;;;;;;5073074;28;20043;-73
2023/08/15 18:37:34;;;;;;;8.85;4.35;;;29.70;89.60;;;;;;5073536;28;20048;-73
2023/08/15 18:40:37;;;;;;;6.85;4.32;;;29.70;90.00;;;;;;5073140;28;20055;-73
2023/08/15 18:43:41;;;;;;;6.07;3.80;;;29.50;90.50;;;;;;5073148;28;20067;-72
2023/08/15 18:47:06;;;;;;;6.97;3.92;;;29.40;90.40;;;;;;5073086;28;20581;-72
2023/08/15 18:53:51;;;;;;;6.63;3.92;;;29.30;90.80;;;;;;5072739;28;20040;-72
2023/08/15 18:56:55;;;;;;;6.72;4.30;;;29.20;90.90;;;;;;5073247;28;20047;-72
2023/08/15 19:03:22;;;;;;;14.90;4.80;;;29.10;91.40;;;;;;5072559;28;20039;-72
2023/08/15 19:06:26;;;;;;;6.57;4.75;;;29.10;91.40;;;;;;5072570;28;20040;-73
2023/08/15 19:09:30;;;;;;;11.77;4.63;;;29.10;91.30;;;;;;5072806;28;20040;-72
2023/08/15 19:15:58;;;;;;;8.85;4.80;;;29.00;91.80;;;;;;5072440;28;20043;-72
2023/08/15 19:19:04;;;;;;;8.00;4.25;;;28.90;91.80;;;;;;5073099;28;20045;-73
2023/08/15 19:22:27;;;;;;;7.10;4.38;;;28.80;91.80;;;;;;5072509;28;20052;-73
2023/08/15 19:25:31;;;;;;;9.85;4.18;;;28.70;91.90;;;;;;5071008;28;20051;-73
2023/08/15 19:28:35;;;;;;;6.13;4.00;;;28.70;92.00;;;;;;5072475;28;20039;-72
2023/08/15 19:31:41;;;;;;;6.95;4.07;;;28.50;92.10;;;;;;5072119;28;20063;-73
2023/08/15 19:34:46;;;;;;;9.13;4.32;;;28.40;92.20;;;;;;5072280;28;20048;-73
2023/08/15 19:38:10;;;;;;;5.50;3.80;;;28.30;92.30;;;;;;5072328;28;20399;-72
2023/08/15 19:41:33;;;;;;;8.15;4.25;;;28.30;92.40;;;;;;5071767;28;20514;-72
2023/08/15 19:44:36;;;;;;;7.50;5.07;;;28.30;92.50;;;;;;5071770;28;20043;-72
2023/08/15 19:47:41;;;;;;;6.15;4.55;;;28.20;92.70;;;;;;5072377;28;20052;-72
